sensor_id;sensor_type;location;lat;lon;timestamp;temperature;humidity
758;DHT22;363;48.764;9.172;2023-07-29T00:00:55;18.70;99.90
758;DHT22;363;48.764;9.172;2023-07-29T00:03:21;18.80;99.90
758;DHT22;363;48.764;9.172;2023-07-29T00:05:47;18.80;99.90
758;DHT22;363;48.764;9.172;2023-07-29T00:08:13;18.70;99.90
758;DHT22;363;48.764;9.172;2023-07-29T00:10:38;18.60;99.90
758;DHT22;363;48.764;9.172;2023-07-29T00:13:05;18.60;99.90
758;DHT22;363;48.764;9.172;2023-07-29T00:15:30;18.20;99.90
758;DHT22;363;48.764;9.172;2023-07-29T00:17:56;18.80;99.90
758;DHT22;363;48.764;9.172;2023-07-29T00:20:21;18.30;99.90
758;DHT22;363;48.764;9.172;2023-07-29T00:22:47;18.40;99.90
758;DHT22;363;48.764;9.172;2023-07-29T00:25:15;18.70;99.90
758;DHT22;363;48.764;9.172;2023-07-29T00:27:41;19.80;99.90
758;DHT22;363;48.764;9.172;2023-07-29T00:30:07;18.60;99.90
758;DHT22;363;48.764;9.172;2023-07-29T00:32:34;18.40;99.90
758;DHT22;363;48.764;9.172;2023-07-29T00:35:00;18.90;99.90
758;DHT22;363;48.764;9.172;2023-07-29T00:37:27;18.80;99.90
758;DHT22;363;48.764;9.172;2023-07-29T00:39:52;18.50;99.90
758;DHT22;363;48.764;9.172;2023-07-29T00:42:18;18.50;99.90
758;DHT22;363;48.764;9.172;2023-07-29T00:44:43;18.60;99.90
758;DHT22;363;48.764;9.172;2023-07-29T00:47:09;19.10;99.90
758;DHT22;363;48.764;9.172;2023-07-29T00:49:36;19.80;99.90
758;DHT22;363;48.764;9.172;2023-07-29T00:52:02;19.00;99.90
758;DHT22;363;48.764;9.172;2023-07-29T00:54:28;18.60;99.90
758;DHT22;363;48.764;9.172;2023-07-29T00:56:53;19.10;99.90
758;DHT22;363;48.764;9.172;2023-07-29T00:59:19;18.60;99.90
758;DHT22;363;48.764;9.172;2023-07-29T01:01:45;18.50;99.90
758;DHT22;363;48.764;9.172;2023-07-29T01:04:10;18.70;99.90
758;DHT22;363;48.764;9.172;2023-07-29T01:10:13;18.80;99.90
758;DHT22;363;48.764;9.172;2023-07-29T01:12:22;18.60;99.90
758;DHT22;363;48.764;9.172;2023-07-29T01:14:51;18.40;99.90
758;DHT22;363;48.764;9.172;2023-07-29T01:17:23;18.50;99.90
758;DHT22;363;48.764;9.172;2023-07-29T01:22:33;18.70;99.90
758;DHT22;363;48.764;9.172;2023-07-29T01:24:59;19.10;99.90
758;DHT22;363;48.764;9.172;2023-07-29T01:27:25;19.00;99.90
758;DHT22;363;48.764;9.172;2023-07-29T01:29:51;18.70;99.90
758;DHT22;363;48.764;9.172;2023-07-29T01:32:32;19.10;99.90
758;DHT22;363;48.764;9.172;2023-07-29T01:35:23;18.70;99.90
758;DHT22;363;48.764;9.172;2023-07-29T01:37:58;18.80;99.90
758;DHT22;363;48.764;9.172;2023-07-29T01:40:27;18.70;99.90
758;DHT22;363;48.764;9.172;2023-07-29T01:42:53;19.00;99.90
758;DHT22;363;48.764;9.172;2023-07-29T01:45:18;19.10;99.90
758;DHT22;363;48.764;9.172;2023-07-29T01:47:44;19.00;99.90
758;DHT22;363;48.764;9.172;2023-07-29T01:50:10;19.10;99.90
758;DHT22;363;48.764;9.172;2023-07-29T01:52:35;18.70;99.90
758;DHT22;363;48.764;9.172;2023-07-29T01:55:02;19.00;99.90
758;DHT22;363;48.764;9.172;2023-07-29T01:57:27;19.20;99.90
758;DHT22;363;48.764;9.172;2023-07-29T01:59:53;18.70;99.90
758;DHT22;363;48.764;9.172;2023-07-29T02:02:18;19.20;99.90
758;DHT22;363;48.764;9.172;2023-07-29T02:04:43;19.10;99.90
758;DHT22;363;48.764;9.172;2023-07-29T02:07:10;19.10;99.90
758;DHT22;363;48.764;9.172;2023-07-29T02:09:36;19.20;99.90
758;DHT22;363;48.764;9.172;2023-07-29T02:12:01;19.10;99.90
758;DHT22;363;48.764;9.172;2023-07-29T02:14:28;18.90;99.90
758;DHT22;363;48.764;9.172;2023-07-29T02:16:53;19.20;99.90
758;DHT22;363;48.764;9.172;2023-07-29T02:19:19;19.20;99.90
758;DHT22;363;48.764;9.172;2023-07-29T02:21:44;19.10;99.90
758;DHT22;363;48.764;9.172;2023-07-29T02:24:10;19.10;99.90
758;DHT22;363;48.764;9.172;2023-07-29T02:26:35;19.10;99.90
758;DHT22;363;48.764;9.172;2023-07-29T02:29:01;18.80;99.90
758;DHT22;363;48.764;9.172;2023-07-29T02:31:26;19.00;99.90
758;DHT22;363;48.764;9.172;2023-07-29T02:33:52;18.80;99.90
758;DHT22;363;48.764;9.172;2023-07-29T02:36:18;19.00;99.90
758;DHT22;363;48.764;9.172;2023-07-29T02:38:44;19.00;99.90
758;DHT22;363;48.764;9.172;2023-07-29T02:41:10;19.00;99.90
758;DHT22;363;48.764;9.172;2023-07-29T02:43:37;19.00;99.90
758;DHT22;363;48.764;9.172;2023-07-29T02:46:03;19.00;99.90
758;DHT22;363;48.764;9.172;2023-07-29T02:48:28;19.00;99.90
758;DHT22;363;48.764;9.172;2023-07-29T02:50:55;18.40;99.90
758;DHT22;363;48.764;9.172;2023-07-29T02:53:21;18.80;99.90
758;DHT22;363;48.764;9.172;2023-07-29T02:55:47;18.70;99.90
758;DHT22;363;48.764;9.172;2023-07-29T02:58:12;18.90;99.90
758;DHT22;363;48.764;9.172;2023-07-29T03:00:38;18.70;99.90
758;DHT22;363;48.764;9.172;2023-07-29T03:03:07;18.80;99.90
758;DHT22;363;48.764;9.172;2023-07-29T03:05:33;18.40;99.90
758;DHT22;363;48.764;9.172;2023-07-29T03:07:58;18.40;99.90
758;DHT22;363;48.764;9.172;2023-07-29T03:10:24;18.60;99.90
758;DHT22;363;48.764;9.172;2023-07-29T03:12:50;18.90;99.90
758;DHT22;363;48.764;9.172;2023-07-29T03:15:16;18.80;99.90
758;DHT22;363;48.764;9.172;2023-07-29T03:17:41;18.50;99.90
758;DHT22;363;48.764;9.172;2023-07-29T03:20:07;18.90;99.90
758;DHT22;363;48.764;9.172;2023-07-29T03:22:33;18.50;99.90
758;DHT22;363;48.764;9.172;2023-07-29T03:24:58;18.80;99.90
758;DHT22;363;48.764;9.172;2023-07-29T03:27:24;18.80;99.90
758;DHT22;363;48.764;9.172;2023-07-29T03:29:49;18.80;99.90
758;DHT22;363;48.764;9.172;2023-07-29T03:32:15;18.90;99.90
758;DHT22;363;48.764;9.172;2023-07-29T03:34:40;18.90;99.90
758;DHT22;363;48.764;9.172;2023-07-29T03:37:06;18.90;99.90
758;DHT22;363;48.764;9.172;2023-07-29T03:39:32;18.90;99.90
758;DHT22;363;48.764;9.172;2023-07-29T03:41:58;18.50;99.90
758;DHT22;363;48.764;9.172;2023-07-29T03:44:23;18.50;99.90
758;DHT22;363;48.764;9.172;2023-07-29T03:46:49;18.50;99.90
758;DHT22;363;48.764;9.172;2023-07-29T03:49:14;18.60;99.90
758;DHT22;363;48.764;9.172;2023-07-29T03:51:40;18.80;99.90
758;DHT22;363;48.764;9.172;2023-07-29T03:54:06;18.90;99.90
758;DHT22;363;48.764;9.172;2023-07-29T03:56:31;18.50;99.90
758;DHT22;363;48.764;9.172;2023-07-29T03:59:04;18.90;99.90
758;DHT22;363;48.764;9.172;2023-07-29T04:01:30;18.90;99.90
758;DHT22;363;48.764;9.172;2023-07-29T04:03:56;19.10;99.90
758;DHT22;363;48.764;9.172;2023-07-29T04:06:21;18.90;99.90
758;DHT22;363;48.764;9.172;2023-07-29T04:08:48;19.10;99.90
758;DHT22;363;48.764;9.172;2023-07-29T04:11:13;19.10;99.90
758;DHT22;363;48.764;9.172;2023-07-29T04:13:39;19.00;99.90
758;DHT22;363;48.764;9.172;2023-07-29T04:16:05;19.10;99.90
758;DHT22;363;48.764;9.172;2023-07-29T04:18:30;19.10;99.90
758;DHT22;363;48.764;9.172;2023-07-29T04:20:56;18.90;99.90
758;DHT22;363;48.764;9.172;2023-07-29T04:23:21;19.20;99.90
758;DHT22;363;48.764;9.172;2023-07-29T04:25:47;19.00;99.90
758;DHT22;363;48.764;9.172;2023-07-29T04:28:12;19.30;99.90
758;DHT22;363;48.764;9.172;2023-07-29T04:30:38;18.90;99.90
758;DHT22;363;48.764;9.172;2023-07-29T04:33:04;19.10;99.90
758;DHT22;363;48.764;9.172;2023-07-29T04:35:29;19.30;99.90
758;DHT22;363;48.764;9.172;2023-07-29T04:37:54;19.40;99.90
758;DHT22;363;48.764;9.172;2023-07-29T04:40:20;19.00;99.90
758;DHT22;363;48.764;9.172;2023-07-29T04:42:47;19.30;99.90
758;DHT22;363;48.764;9.172;2023-07-29T04:45:13;19.30;99.90
758;DHT22;363;48.764;9.172;2023-07-29T04:47:38;19.00;99.90
758;DHT22;363;48.764;9.172;2023-07-29T04:50:04;18.90;99.90
758;DHT22;363;48.764;9.172;2023-07-29T04:52:31;18.80;99.90
758;DHT22;363;48.764;9.172;2023-07-29T04:54:57;19.20;99.90
758;DHT22;363;48.764;9.172;2023-07-29T04:57:22;18.80;99.90
758;DHT22;363;48.764;9.172;2023-07-29T04:59:48;19.10;99.90
758;DHT22;363;48.764;9.172;2023-07-29T05:02:13;18.50;99.90
758;DHT22;363;48.764;9.172;2023-07-29T05:04:39;19.10;99.90
758;DHT22;363;48.764;9.172;2023-07-29T05:07:04;19.20;99.90
758;DHT22;363;48.764;9.172;2023-07-29T05:09:30;18.90;99.90
758;DHT22;363;48.764;9.172;2023-07-29T05:11:55;19.20;99.90
758;DHT22;363;48.764;9.172;2023-07-29T05:14:21;18.90;99.90
758;DHT22;363;48.764;9.172;2023-07-29T05:16:46;19.30;99.90
758;DHT22;363;48.764;9.172;2023-07-29T05:19:13;18.90;99.90
758;DHT22;363;48.764;9.172;2023-07-29T05:21:39;18.90;99.90
758;DHT22;363;48.764;9.172;2023-07-29T05:24:05;19.40;99.90
758;DHT22;363;48.764;9.172;2023-07-29T05:26:30;19.50;99.90
758;DHT22;363;48.764;9.172;2023-07-29T05:28:56;19.50;99.90
758;DHT22;363;48.764;9.172;2023-07-29T05:31:22;19.40;99.90
758;DHT22;363;48.764;9.172;2023-07-29T05:33:48;19.20;99.90
758;DHT22;363;48.764;9.172;2023-07-29T05:36:14;19.20;99.90
758;DHT22;363;48.764;9.172;2023-07-29T05:38:39;19.60;99.90
758;DHT22;363;48.764;9.172;2023-07-29T05:41:05;19.70;99.90
758;DHT22;363;48.764;9.172;2023-07-29T05:43:30;19.60;99.90
758;DHT22;363;48.764;9.172;2023-07-29T05:45:56;19.70;99.90
758;DHT22;363;48.764;9.172;2023-07-29T05:48:21;20.00;99.90
758;DHT22;363;48.764;9.172;2023-07-29T05:50:47;19.80;99.90
758;DHT22;363;48.764;9.172;2023-07-29T05:53:14;19.80;99.90
758;DHT22;363;48.764;9.172;2023-07-29T05:55:39;20.30;99.90
758;DHT22;363;48.764;9.172;2023-07-29T05:58:05;20.20;99.90
758;DHT22;363;48.764;9.172;2023-07-29T06:00:31;20.30;99.90
758;DHT22;363;48.764;9.172;2023-07-29T06:02:56;20.50;99.90
758;DHT22;363;48.764;9.172;2023-07-29T06:05:22;20.40;99.90
758;DHT22;363;48.764;9.172;2023-07-29T06:07:47;20.70;99.90
758;DHT22;363;48.764;9.172;2023-07-29T06:10:15;20.30;99.90
758;DHT22;363;48.764;9.172;2023-07-29T06:12:45;20.50;99.90
758;DHT22;363;48.764;9.172;2023-07-29T06:15:10;20.70;99.90
758;DHT22;363;48.764;9.172;2023-07-29T06:17:37;20.70;99.90
758;DHT22;363;48.764;9.172;2023-07-29T06:20:03;21.00;99.90
758;DHT22;363;48.764;9.172;2023-07-29T06:22:29;20.90;99.90
758;DHT22;363;48.764;9.172;2023-07-29T06:24:54;21.50;99.90
758;DHT22;363;48.764;9.172;2023-07-29T06:27:20;21.10;99.90
758;DHT22;363;48.764;9.172;2023-07-29T06:29:45;21.70;99.90
758;DHT22;363;48.764;9.172;2023-07-29T06:32:11;21.70;99.90
758;DHT22;363;48.764;9.172;2023-07-29T06:34:36;21.50;99.90
758;DHT22;363;48.764;9.172;2023-07-29T06:37:02;21.40;99.90
758;DHT22;363;48.764;9.172;2023-07-29T06:39:27;21.80;99.90
758;DHT22;363;48.764;9.172;2023-07-29T06:41:53;21.90;99.90
758;DHT22;363;48.764;9.172;2023-07-29T06:44:19;21.70;99.90
758;DHT22;363;48.764;9.172;2023-07-29T06:46:44;21.40;99.90
758;DHT22;363;48.764;9.172;2023-07-29T06:49:10;21.50;99.90
758;DHT22;363;48.764;9.172;2023-07-29T06:51:35;21.80;99.90
758;DHT22;363;48.764;9.172;2023-07-29T06:54:04;21.90;99.90
758;DHT22;363;48.764;9.172;2023-07-29T06:56:31;21.70;99.90
758;DHT22;363;48.764;9.172;2023-07-29T06:58:56;21.40;99.90
758;DHT22;363;48.764;9.172;2023-07-29T07:01:22;21.60;99.90
758;DHT22;363;48.764;9.172;2023-07-29T07:03:47;21.60;99.90
758;DHT22;363;48.764;9.172;2023-07-29T07:06:13;21.10;99.90
758;DHT22;363;48.764;9.172;2023-07-29T07:08:38;21.40;99.90
758;DHT22;363;48.764;9.172;2023-07-29T07:11:04;21.30;99.90
758;DHT22;363;48.764;9.172;2023-07-29T07:13:29;21.20;99.90
758;DHT22;363;48.764;9.172;2023-07-29T07:15:55;21.00;99.90
758;DHT22;363;48.764;9.172;2023-07-29T07:18:21;21.10;99.90
758;DHT22;363;48.764;9.172;2023-07-29T07:20:50;20.50;99.90
758;DHT22;363;48.764;9.172;2023-07-29T07:23:16;20.80;99.90
758;DHT22;363;48.764;9.172;2023-07-29T07:25:42;20.80;99.90
758;DHT22;363;48.764;9.172;2023-07-29T07:28:08;20.60;99.90
758;DHT22;363;48.764;9.172;2023-07-29T07:30:34;20.60;99.90
758;DHT22;363;48.764;9.172;2023-07-29T07:32:59;20.70;99.90
758;DHT22;363;48.764;9.172;2023-07-29T07:35:25;20.70;99.90
758;DHT22;363;48.764;9.172;2023-07-29T07:37:50;20.50;99.90
758;DHT22;363;48.764;9.172;2023-07-29T07:40:16;21.00;99.90
758;DHT22;363;48.764;9.172;2023-07-29T07:42:41;21.10;99.90
758;DHT22;363;48.764;9.172;2023-07-29T07:45:07;21.20;99.90
758;DHT22;363;48.764;9.172;2023-07-29T07:47:32;20.80;99.90
758;DHT22;363;48.764;9.172;2023-07-29T07:49:58;21.30;99.90
758;DHT22;363;48.764;9.172;2023-07-29T07:52:24;20.90;99.90
758;DHT22;363;48.764;9.172;2023-07-29T07:54:53;21.20;99.90
758;DHT22;363;48.764;9.172;2023-07-29T07:57:20;21.30;99.90
758;DHT22;363;48.764;9.172;2023-07-29T07:59:46;21.00;99.90
758;DHT22;363;48.764;9.172;2023-07-29T08:02:11;21.30;99.90
758;DHT22;363;48.764;9.172;2023-07-29T08:04:37;21.70;99.90
758;DHT22;363;48.764;9.172;2023-07-29T08:07:02;21.80;99.90
758;DHT22;363;48.764;9.172;2023-07-29T08:09:28;21.80;99.90
758;DHT22;363;48.764;9.172;2023-07-29T08:11:53;22.10;99.90
758;DHT22;363;48.764;9.172;2023-07-29T08:14:19;21.80;99.90
758;DHT22;363;48.764;9.172;2023-07-29T08:16:44;22.20;99.90
758;DHT22;363;48.764;9.172;2023-07-29T08:19:10;22.30;99.90
758;DHT22;363;48.764;9.172;2023-07-29T08:21:36;23.00;99.90
758;DHT22;363;48.764;9.172;2023-07-29T08:24:01;23.20;99.90
758;DHT22;363;48.764;9.172;2023-07-29T08:26:27;22.90;99.90
758;DHT22;363;48.764;9.172;2023-07-29T08:28:52;23.30;99.90
758;DHT22;363;48.764;9.172;2023-07-29T08:31:18;24.10;99.90
758;DHT22;363;48.764;9.172;2023-07-29T08:33:43;23.50;99.90
758;DHT22;363;48.764;9.172;2023-07-29T08:36:09;23.20;99.90
758;DHT22;363;48.764;9.172;2023-07-29T08:38:34;23.20;99.90
758;DHT22;363;48.764;9.172;2023-07-29T08:43:39;23.20;99.90
758;DHT22;363;48.764;9.172;2023-07-29T08:46:07;23.70;99.90
758;DHT22;363;48.764;9.172;2023-07-29T08:48:39;23.80;99.90
758;DHT22;363;48.764;9.172;2023-07-29T08:51:08;23.90;99.90
758;DHT22;363;48.764;9.172;2023-07-29T08:53:34;24.10;99.90
758;DHT22;363;48.764;9.172;2023-07-29T08:56:00;25.70;99.90
758;DHT22;363;48.764;9.172;2023-07-29T08:58:26;27.30;99.90
758;DHT22;363;48.764;9.172;2023-07-29T09:00:52;28.30;99.90
758;DHT22;363;48.764;9.172;2023-07-29T09:03:19;29.30;97.90
758;DHT22;363;48.764;9.172;2023-07-29T09:05:46;29.50;96.80
758;DHT22;363;48.764;9.172;2023-07-29T09:08:12;29.30;96.00
758;DHT22;363;48.764;9.172;2023-07-29T09:10:38;29.40;96.00
758;DHT22;363;48.764;9.172;2023-07-29T09:13:04;29.00;96.30
758;DHT22;363;48.764;9.172;2023-07-29T09:15:33;28.70;97.30
758;DHT22;363;48.764;9.172;2023-07-29T09:18:00;27.80;98.30
758;DHT22;363;48.764;9.172;2023-07-29T09:20:33;27.80;99.70
758;DHT22;363;48.764;9.172;2023-07-29T09:22:59;27.50;99.90
758;DHT22;363;48.764;9.172;2023-07-29T09:25:30;27.00;99.90
758;DHT22;363;48.764;9.172;2023-07-29T09:28:00;26.90;99.90
758;DHT22;363;48.764;9.172;2023-07-29T09:30:26;27.10;99.90
758;DHT22;363;48.764;9.172;2023-07-29T09:32:55;27.80;99.90
758;DHT22;363;48.764;9.172;2023-07-29T09:35:21;27.70;99.00
758;DHT22;363;48.764;9.172;2023-07-29T09:37:47;27.80;98.50
758;DHT22;363;48.764;9.172;2023-07-29T09:40:14;28.10;99.00
758;DHT22;363;48.764;9.172;2023-07-29T09:42:50;27.30;98.90
758;DHT22;363;48.764;9.172;2023-07-29T09:45:24;27.10;99.80
758;DHT22;363;48.764;9.172;2023-07-29T09:47:51;27.00;99.90
758;DHT22;363;48.764;9.172;2023-07-29T09:50:17;27.10;99.40
758;DHT22;363;48.764;9.172;2023-07-29T09:52:44;27.30;98.20
758;DHT22;363;48.764;9.172;2023-07-29T09:55:13;27.30;97.90
758;DHT22;363;48.764;9.172;2023-07-29T09:57:40;27.70;97.80
758;DHT22;363;48.764;9.172;2023-07-29T10:00:06;27.80;97.80
758;DHT22;363;48.764;9.172;2023-07-29T10:02:37;27.80;97.20
758;DHT22;363;48.764;9.172;2023-07-29T10:05:03;28.90;96.00
758;DHT22;363;48.764;9.172;2023-07-29T10:07:29;29.40;93.80
758;DHT22;363;48.764;9.172;2023-07-29T10:09:56;31.10;91.70
758;DHT22;363;48.764;9.172;2023-07-29T10:12:24;32.10;90.10
758;DHT22;363;48.764;9.172;2023-07-29T10:14:50;32.40;85.50
758;DHT22;363;48.764;9.172;2023-07-29T10:17:16;32.40;85.00
758;DHT22;363;48.764;9.172;2023-07-29T10:19:42;31.90;83.40
758;DHT22;363;48.764;9.172;2023-07-29T10:22:10;31.60;84.50
758;DHT22;363;48.764;9.172;2023-07-29T10:24:37;31.30;86.20
758;DHT22;363;48.764;9.172;2023-07-29T10:27:06;30.60;87.50
758;DHT22;363;48.764;9.172;2023-07-29T10:29:38;30.10;86.50
758;DHT22;363;48.764;9.172;2023-07-29T10:32:09;29.90;86.50
758;DHT22;363;48.764;9.172;2023-07-29T10:34:36;29.30;84.90
758;DHT22;363;48.764;9.172;2023-07-29T10:37:02;29.00;87.80
758;DHT22;363;48.764;9.172;2023-07-29T10:39:39;28.80;88.20
758;DHT22;363;48.764;9.172;2023-07-29T10:42:07;28.70;87.60
758;DHT22;363;48.764;9.172;2023-07-29T10:47:31;28.70;90.70
758;DHT22;363;48.764;9.172;2023-07-29T10:49:59;28.80;90.00
758;DHT22;363;48.764;9.172;2023-07-29T10:54:59;28.10;92.10
758;DHT22;363;48.764;9.172;2023-07-29T10:59:57;27.80;96.60
758;DHT22;363;48.764;9.172;2023-07-29T11:02:32;28.30;96.40
758;DHT22;363;48.764;9.172;2023-07-29T11:04:59;27.60;95.60
758;DHT22;363;48.764;9.172;2023-07-29T11:07:26;28.10;95.00
758;DHT22;363;48.764;9.172;2023-07-29T11:09:54;28.30;96.00
758;DHT22;363;48.764;9.172;2023-07-29T11:15:15;27.50;94.90
758;DHT22;363;48.764;9.172;2023-07-29T11:17:46;27.50;94.50
758;DHT22;363;48.764;9.172;2023-07-29T11:20:13;27.50;94.40
758;DHT22;363;48.764;9.172;2023-07-29T11:22:39;28.50;94.50
758;DHT22;363;48.764;9.172;2023-07-29T11:25:07;27.40;93.50
758;DHT22;363;48.764;9.172;2023-07-29T11:27:33;27.40;92.90
758;DHT22;363;48.764;9.172;2023-07-29T11:29:59;27.80;93.60
758;DHT22;363;48.764;9.172;2023-07-29T11:32:25;27.30;94.90
758;DHT22;363;48.764;9.172;2023-07-29T11:34:51;28.10;94.80
758;DHT22;363;48.764;9.172;2023-07-29T11:37:17;27.60;94.70
758;DHT22;363;48.764;9.172;2023-07-29T11:39:43;27.60;94.20
758;DHT22;363;48.764;9.172;2023-07-29T11:42:13;27.40;94.50
758;DHT22;363;48.764;9.172;2023-07-29T11:44:39;27.30;94.20
758;DHT22;363;48.764;9.172;2023-07-29T11:47:12;27.80;94.00
758;DHT22;363;48.764;9.172;2023-07-29T11:49:41;27.20;94.20
758;DHT22;363;48.764;9.172;2023-07-29T11:52:07;27.30;94.20
758;DHT22;363;48.764;9.172;2023-07-29T11:54:35;27.30;93.40
758;DHT22;363;48.764;9.172;2023-07-29T11:57:01;27.40;93.10
758;DHT22;363;48.764;9.172;2023-07-29T11:59:27;28.30;92.90
758;DHT22;363;48.764;9.172;2023-07-29T12:01:53;28.80;91.30
758;DHT22;363;48.764;9.172;2023-07-29T12:04:19;29.10;91.30
758;DHT22;363;48.764;9.172;2023-07-29T12:06:45;29.70;91.30
758;DHT22;363;48.764;9.172;2023-07-29T12:09:10;28.70;91.80
758;DHT22;363;48.764;9.172;2023-07-29T12:11:38;28.30;91.90
758;DHT22;363;48.764;9.172;2023-07-29T12:14:07;28.60;92.20
758;DHT22;363;48.764;9.172;2023-07-29T12:16:43;28.50;90.40
758;DHT22;363;48.764;9.172;2023-07-29T12:19:11;28.20;90.80
758;DHT22;363;48.764;9.172;2023-07-29T12:21:37;28.20;90.20
758;DHT22;363;48.764;9.172;2023-07-29T12:24:03;28.20;90.80
758;DHT22;363;48.764;9.172;2023-07-29T12:26:29;28.10;90.30
758;DHT22;363;48.764;9.172;2023-07-29T12:28:55;28.50;90.70
758;DHT22;363;48.764;9.172;2023-07-29T12:31:22;28.80;90.90
758;DHT22;363;48.764;9.172;2023-07-29T12:33:56;28.50;90.20
758;DHT22;363;48.764;9.172;2023-07-29T12:36:21;28.30;90.30
758;DHT22;363;48.764;9.172;2023-07-29T12:38:47;29.10;91.00
758;DHT22;363;48.764;9.172;2023-07-29T12:41:12;28.90;90.90
758;DHT22;363;48.764;9.172;2023-07-29T12:43:38;28.50;88.80
758;DHT22;363;48.764;9.172;2023-07-29T12:46:04;28.20;89.60
758;DHT22;363;48.764;9.172;2023-07-29T12:48:29;28.30;89.40
758;DHT22;363;48.764;9.172;2023-07-29T12:50:55;28.50;88.80
758;DHT22;363;48.764;9.172;2023-07-29T12:53:21;28.40;87.30
758;DHT22;363;48.764;9.172;2023-07-29T12:55:46;28.60;86.40
758;DHT22;363;48.764;9.172;2023-07-29T12:58:12;28.60;84.50
758;DHT22;363;48.764;9.172;2023-07-29T13:00:43;28.60;82.60
758;DHT22;363;48.764;9.172;2023-07-29T13:03:08;28.60;83.90
758;DHT22;363;48.764;9.172;2023-07-29T13:05:34;28.30;84.80
758;DHT22;363;48.764;9.172;2023-07-29T13:07:59;28.40;85.50
758;DHT22;363;48.764;9.172;2023-07-29T13:10:25;28.40;84.50
758;DHT22;363;48.764;9.172;2023-07-29T13:12:50;28.30;85.30
758;DHT22;363;48.764;9.172;2023-07-29T13:15:16;28.70;85.40
758;DHT22;363;48.764;9.172;2023-07-29T13:17:41;28.40;85.40
758;DHT22;363;48.764;9.172;2023-07-29T13:20:07;28.20;85.20
758;DHT22;363;48.764;9.172;2023-07-29T13:22:33;28.20;85.40
758;DHT22;363;48.764;9.172;2023-07-29T13:24:59;28.10;84.60
758;DHT22;363;48.764;9.172;2023-07-29T13:27:24;28.20;84.60
758;DHT22;363;48.764;9.172;2023-07-29T13:29:50;28.10;84.50
758;DHT22;363;48.764;9.172;2023-07-29T13:32:16;28.50;84.20
758;DHT22;363;48.764;9.172;2023-07-29T13:34:41;28.30;84.10
758;DHT22;363;48.764;9.172;2023-07-29T13:37:07;27.70;84.60
758;DHT22;363;48.764;9.172;2023-07-29T13:39:32;27.80;85.30
758;DHT22;363;48.764;9.172;2023-07-29T13:41:58;28.00;86.00
758;DHT22;363;48.764;9.172;2023-07-29T13:44:23;28.20;85.80
758;DHT22;363;48.764;9.172;2023-07-29T13:46:49;28.80;86.60
758;DHT22;363;48.764;9.172;2023-07-29T13:49:14;27.70;84.90
758;DHT22;363;48.764;9.172;2023-07-29T13:51:40;27.80;85.70
758;DHT22;363;48.764;9.172;2023-07-29T13:54:08;28.60;85.90
758;DHT22;363;48.764;9.172;2023-07-29T13:56:33;27.80;84.20
758;DHT22;363;48.764;9.172;2023-07-29T13:58:59;27.50;84.10
758;DHT22;363;48.764;9.172;2023-07-29T14:01:24;27.80;85.20
758;DHT22;363;48.764;9.172;2023-07-29T14:03:49;28.80;86.40
758;DHT22;363;48.764;9.172;2023-07-29T14:06:15;28.10;84.70
758;DHT22;363;48.764;9.172;2023-07-29T14:08:40;27.60;83.70
758;DHT22;363;48.764;9.172;2023-07-29T14:11:07;29.00;86.10
758;DHT22;363;48.764;9.172;2023-07-29T14:13:32;28.80;84.20
758;DHT22;363;48.764;9.172;2023-07-29T14:16:01;28.40;84.10
758;DHT22;363;48.764;9.172;2023-07-29T14:18:27;28.10;83.90
758;DHT22;363;48.764;9.172;2023-07-29T14:20:52;28.00;84.60
758;DHT22;363;48.764;9.172;2023-07-29T14:23:18;28.80;84.30
758;DHT22;363;48.764;9.172;2023-07-29T14:25:43;28.00;85.20
758;DHT22;363;48.764;9.172;2023-07-29T14:28:09;28.40;84.80
758;DHT22;363;48.764;9.172;2023-07-29T14:30:34;28.70;86.00
758;DHT22;363;48.764;9.172;2023-07-29T14:33:00;27.70;84.50
758;DHT22;363;48.764;9.172;2023-07-29T14:35:26;28.30;86.60
758;DHT22;363;48.764;9.172;2023-07-29T14:37:52;27.40;86.20
758;DHT22;363;48.764;9.172;2023-07-29T14:40:17;27.60;87.20
758;DHT22;363;48.764;9.172;2023-07-29T14:42:43;27.90;87.60
758;DHT22;363;48.764;9.172;2023-07-29T14:45:08;27.10;87.80
758;DHT22;363;48.764;9.172;2023-07-29T14:47:34;27.20;88.40
758;DHT22;363;48.764;9.172;2023-07-29T14:50:00;27.20;88.60
758;DHT22;363;48.764;9.172;2023-07-29T14:52:26;27.20;88.00
758;DHT22;363;48.764;9.172;2023-07-29T14:54:51;28.10;88.70
758;DHT22;363;48.764;9.172;2023-07-29T14:57:17;27.30;88.40
758;DHT22;363;48.764;9.172;2023-07-29T14:59:42;27.20;88.00
758;DHT22;363;48.764;9.172;2023-07-29T15:02:08;27.10;88.30
758;DHT22;363;48.764;9.172;2023-07-29T15:04:34;27.20;88.90
758;DHT22;363;48.764;9.172;2023-07-29T15:06:59;27.30;89.10
758;DHT22;363;48.764;9.172;2023-07-29T15:09:25;27.40;88.90
758;DHT22;363;48.764;9.172;2023-07-29T15:11:51;27.60;89.20
758;DHT22;363;48.764;9.172;2023-07-29T15:14:17;27.50;88.10
758;DHT22;363;48.764;9.172;2023-07-29T15:16:42;27.40;87.10
758;DHT22;363;48.764;9.172;2023-07-29T15:19:08;27.60;88.10
758;DHT22;363;48.764;9.172;2023-07-29T15:21:34;27.80;88.60
758;DHT22;363;48.764;9.172;2023-07-29T15:24:00;27.40;88.60
758;DHT22;363;48.764;9.172;2023-07-29T15:26:26;27.30;89.20
758;DHT22;363;48.764;9.172;2023-07-29T15:28:51;27.30;89.30
758;DHT22;363;48.764;9.172;2023-07-29T15:31:17;27.90;90.10
758;DHT22;363;48.764;9.172;2023-07-29T15:33:43;27.30;89.10
758;DHT22;363;48.764;9.172;2023-07-29T15:36:08;27.40;89.40
758;DHT22;363;48.764;9.172;2023-07-29T15:38:34;27.10;90.10
758;DHT22;363;48.764;9.172;2023-07-29T15:41:00;27.80;90.60
758;DHT22;363;48.764;9.172;2023-07-29T15:43:26;27.20;90.60
758;DHT22;363;48.764;9.172;2023-07-29T15:45:52;27.20;90.20
758;DHT22;363;48.764;9.172;2023-07-29T15:48:17;27.50;89.60
758;DHT22;363;48.764;9.172;2023-07-29T15:50:43;27.30;88.90
758;DHT22;363;48.764;9.172;2023-07-29T15:53:08;27.30;89.80
758;DHT22;363;48.764;9.172;2023-07-29T15:55:34;28.20;90.20
758;DHT22;363;48.764;9.172;2023-07-29T15:57:59;28.20;90.40
758;DHT22;363;48.764;9.172;2023-07-29T16:00:25;28.20;90.30
758;DHT22;363;48.764;9.172;2023-07-29T16:02:51;27.60;89.90
758;DHT22;363;48.764;9.172;2023-07-29T16:05:16;27.20;90.00
758;DHT22;363;48.764;9.172;2023-07-29T16:07:42;27.40;90.00
758;DHT22;363;48.764;9.172;2023-07-29T16:10:08;28.10;90.50
758;DHT22;363;48.764;9.172;2023-07-29T16:12:34;27.30;90.20
758;DHT22;363;48.764;9.172;2023-07-29T16:15:08;27.40;87.40
758;DHT22;363;48.764;9.172;2023-07-29T16:17:34;27.10;86.10
758;DHT22;363;48.764;9.172;2023-07-29T16:20:01;27.90;87.80
758;DHT22;363;48.764;9.172;2023-07-29T16:22:27;28.20;86.80
758;DHT22;363;48.764;9.172;2023-07-29T16:24:53;27.30;86.20
758;DHT22;363;48.764;9.172;2023-07-29T16:27:19;27.00;86.00
758;DHT22;363;48.764;9.172;2023-07-29T16:29:47;27.00;85.50
758;DHT22;363;48.764;9.172;2023-07-29T16:32:14;26.70;85.20
758;DHT22;363;48.764;9.172;2023-07-29T16:34:40;28.30;87.20
758;DHT22;363;48.764;9.172;2023-07-29T16:37:06;27.00;86.70
758;DHT22;363;48.764;9.172;2023-07-29T16:39:32;27.00;86.60
758;DHT22;363;48.764;9.172;2023-07-29T16:41:58;26.90;87.10
758;DHT22;363;48.764;9.172;2023-07-29T16:44:23;27.20;86.10
758;DHT22;363;48.764;9.172;2023-07-29T16:46:49;26.80;85.40